createdAt,value
2022-10-05T00:01:17.357Z,81.18
2022-10-05T00:03:45.355Z,81.18
2022-10-05T00:06:16.134Z,81.19
2022-10-05T00:08:43.907Z,81.13
2022-10-05T00:11:16.228Z,81.15
2022-10-05T00:13:43.943Z,81.18
2022-10-05T00:16:11.647Z,81.14
2022-10-05T00:18:46.537Z,81.12
2022-10-05T00:21:29.015Z,81.14
2022-10-05T00:24:00.870Z,81.18
2022-10-05T00:26:33.925Z,81.22
2022-10-05T00:29:13.911Z,81.25
2022-10-05T00:31:41.942Z,81.33
2022-10-05T00:34:11.393Z,81.37
2022-10-05T00:36:42.469Z,81.40
2022-10-05T00:39:13.120Z,81.43
2022-10-05T00:42:28.344Z,81.46
2022-10-05T00:45:05.280Z,81.53
2022-10-05T00:47:44.917Z,81.59
2022-10-05T00:50:31.112Z,81.70
2022-10-05T00:53:17.897Z,81.73
2022-10-05T00:56:13.700Z,81.84
2022-10-05T00:59:16.736Z,81.84
2022-10-05T01:01:58.739Z,81.88
2022-10-05T01:04:43.079Z,81.92
2022-10-05T01:07:35.422Z,82.10
2022-10-05T01:10:20.597Z,82.27
2022-10-05T01:13:38.670Z,82.32
2022-10-05T01:16:30.421Z,82.44
2022-10-05T01:19:37.413Z,82.46
2022-10-05T01:22:30.637Z,82.46
2022-10-05T01:25:28.066Z,82.54
2022-10-05T01:28:04.883Z,82.52
2022-10-05T01:31:06.990Z,82.54
2022-10-05T01:33:54.450Z,82.62
2022-10-05T01:36:29.885Z,82.63
2022-10-05T01:39:19.389Z,82.62
2022-10-05T01:42:15.890Z,82.59
2022-10-05T01:45:11.214Z,82.59
2022-10-05T01:47:52.628Z,82.64
2022-10-05T01:50:30.485Z,82.60
2022-10-05T01:53:27.785Z,82.67
2022-10-05T01:56:12.399Z,82.70
2022-10-05T01:59:08.556Z,82.77
2022-10-05T02:01:44.889Z,82.88
2022-10-05T02:05:00.965Z,82.87
2022-10-05T02:07:36.759Z,82.87
2022-10-05T02:10:30.343Z,82.78
2022-10-05T02:13:05.649Z,82.81
2022-10-05T02:15:55.651Z,82.84
2022-10-05T02:18:30.554Z,82.86
2022-10-05T02:21:03.028Z,82.82
2022-10-05T02:23:38.468Z,82.79
2022-10-05T02:26:11.571Z,82.80
2022-10-05T02:28:58.392Z,82.85
2022-10-05T02:31:49.674Z,82.86
2022-10-05T02:34:43.802Z,82.86
2022-10-05T02:37:38.680Z,82.87
2022-10-05T02:40:25.481Z,82.81
2022-10-05T02:43:14.921Z,82.80
2022-10-05T02:46:22.882Z,82.84
2022-10-05T02:48:58.520Z,82.84
2022-10-05T02:51:43.792Z,82.79
2022-10-05T02:54:17.678Z,82.78
2022-10-05T02:57:07.542Z,82.75
2022-10-05T02:59:58.180Z,82.77
2022-10-05T03:02:51.560Z,82.76
2022-10-05T03:05:27.995Z,82.76
2022-10-05T03:08:07.240Z,82.68
2022-10-05T03:10:43.090Z,82.64
2022-10-05T03:13:29.468Z,82.62
2022-10-05T03:16:20.580Z,82.59
2022-10-05T03:19:20.564Z,82.53
2022-10-05T03:22:30.415Z,82.53
2022-10-05T03:25:19.721Z,82.47
2022-10-05T03:28:10.765Z,82.39
2022-10-05T03:30:53.204Z,82.36
2022-10-05T03:33:51.029Z,82.37
2022-10-05T03:36:36.659Z,82.37
2022-10-05T03:39:12.878Z,82.36
2022-10-05T03:42:08.418Z,82.30
2022-10-05T03:45:02.639Z,82.26
2022-10-05T03:47:34.841Z,82.22
2022-10-05T03:50:24.826Z,82.19
2022-10-05T03:53:05.515Z,82.20
2022-10-05T03:55:44.039Z,82.15
2022-10-05T03:58:56.653Z,82.17
2022-10-05T04:01:42.593Z,82.21
2022-10-05T04:04:25.941Z,82.23
2022-10-05T04:06:59.242Z,82.21
2022-10-05T04:09:35.805Z,82.24
2022-10-05T04:12:20.215Z,82.26
2022-10-05T04:14:57.780Z,82.24
2022-10-05T04:17:39.437Z,82.26
2022-10-05T04:20:19.021Z,82.29
2022-10-05T04:23:09.912Z,82.25
2022-10-05T04:25:52.959Z,82.29
2022-10-05T04:28:49.355Z,82.29
2022-10-05T04:31:53.172Z,82.27
2022-10-05T04:34:47.582Z,82.30
2022-10-05T04:37:53.712Z,82.32
2022-10-05T04:40:59.516Z,82.35
2022-10-05T04:43:55.629Z,82.35
2022-10-05T04:46:50.004Z,82.31
2022-10-05T04:49:28.900Z,82.28
2022-10-05T04:51:59.875Z,82.25
2022-10-05T04:54:50.092Z,82.24
2022-10-05T04:57:35.720Z,82.23
2022-10-05T05:00:39.990Z,82.19
2022-10-05T05:03:41.647Z,82.15
2022-10-05T05:06:32.158Z,82.15
2022-10-05T05:09:18.882Z,82.14
2022-10-05T05:12:04.691Z,82.15
2022-10-05T05:15:03.430Z,82.18
2022-10-05T05:18:10.359Z,82.20
2022-10-05T05:21:10.483Z,82.18
2022-10-05T05:23:45.919Z,82.17
2022-10-05T05:26:25.747Z,82.18
2022-10-05T05:29:19.972Z,82.18
2022-10-05T05:32:13.057Z,82.17
2022-10-05T05:35:02.611Z,82.16
2022-10-05T05:37:47.955Z,82.13
2022-10-05T05:40:25.034Z,82.09
2022-10-05T05:43:19.038Z,82.04
2022-10-05T05:46:00.934Z,82.00
2022-10-05T05:48:46.594Z,81.96
2022-10-05T05:51:17.287Z,81.91
2022-10-05T05:53:51.136Z,81.84
2022-10-05T05:56:42.061Z,81.78
2022-10-05T05:59:31.781Z,81.71
2022-10-05T06:02:12.568Z,81.64
2022-10-05T06:05:12.641Z,81.53
2022-10-05T06:07:44.839Z,81.48
2022-10-05T06:10:53.868Z,81.43
2022-10-05T06:13:33.867Z,81.35
2022-10-05T06:16:24.316Z,81.31
2022-10-05T06:19:06.604Z,81.19
2022-10-05T06:22:12.170Z,81.16
2022-10-05T06:25:04.963Z,81.00
2022-10-05T06:28:01.736Z,80.97
2022-10-05T06:30:55.527Z,80.88
2022-10-05T06:33:53.579Z,80.87
2022-10-05T06:36:30.427Z,80.87
2022-10-05T06:39:33.825Z,80.83
2022-10-05T06:42:27.210Z,80.63
2022-10-05T06:45:18.900Z,80.52
2022-10-05T06:48:10.262Z,80.45
2022-10-05T06:50:46.228Z,80.35
2022-10-05T06:53:19.859Z,80.24
2022-10-05T06:55:53.334Z,80.08
2022-10-05T06:58:28.262Z,79.89
2022-10-05T07:01:15.729Z,79.66
2022-10-05T07:03:56.185Z,79.38
2022-10-05T07:06:32.834Z,78.95
2022-10-05T07:09:03.330Z,79.00
2022-10-05T07:11:57.331Z,78.70
2022-10-05T07:14:56.339Z,78.67
2022-10-05T07:17:48.939Z,78.42
2022-10-05T07:20:38.298Z,77.72
2022-10-05T07:23:34.878Z,77.50
2022-10-05T07:26:20.383Z,77.44
2022-10-05T07:29:08.218Z,77.22
2022-10-05T07:31:51.473Z,76.75
2022-10-05T07:34:29.476Z,76.36
2022-10-05T07:37:33.722Z,75.58
2022-10-05T07:40:38.119Z,75.45
2022-10-05T07:43:57.604Z,75.91
2022-10-05T07:46:24.314Z,74.76
2022-10-05T07:49:34.393Z,74.36
2022-10-05T07:52:34.677Z,74.90
2022-10-05T07:55:14.350Z,75.60
2022-10-05T07:57:50.283Z,74.74
2022-10-05T08:00:27.463Z,74.92
2022-10-05T08:03:22.587Z,73.81
2022-10-05T08:05:53.643Z,73.82
2022-10-05T08:08:46.404Z,74.19
2022-10-05T08:11:28.114Z,74.20
2022-10-05T08:14:12.517Z,73.97
2022-10-05T08:16:48.594Z,73.91
2022-10-05T08:19:49.752Z,73.65
2022-10-05T08:22:40.789Z,72.82
2022-10-05T08:25:26.918Z,72.67
2022-10-05T08:28:20.423Z,71.86
2022-10-05T08:31:23.313Z,72.47
2022-10-05T08:34:04.027Z,71.01
2022-10-05T08:37:05.544Z,70.16
2022-10-05T08:39:50.092Z,69.77
2022-10-05T08:42:42.932Z,68.75
2022-10-05T08:45:38.662Z,69.38
2022-10-05T08:48:19.816Z,70.11
2022-10-05T08:51:10.036Z,70.26
2022-10-05T08:54:09.218Z,69.56
2022-10-05T08:56:47.995Z,66.78
2022-10-05T08:59:34.000Z,67.43
2022-10-05T09:02:37.924Z,67.32
2022-10-05T09:05:32.757Z,68.52
2022-10-05T09:08:06.823Z,66.80
2022-10-05T09:11:04.423Z,64.95
2022-10-05T09:13:43.442Z,64.77
2022-10-05T09:16:46.183Z,66.05
2022-10-05T09:19:39.136Z,62.79
2022-10-05T09:22:36.950Z,60.37
2022-10-05T09:25:22.874Z,55.60
2022-10-05T09:28:07.990Z,56.22
2022-10-05T09:31:06.864Z,56.60
2022-10-05T09:34:30.760Z,58.27
2022-10-05T09:37:25.275Z,58.04
2022-10-05T09:40:17.874Z,56.42
2022-10-05T09:43:27.220Z,57.77
2022-10-05T09:46:23.930Z,58.64
2022-10-05T09:49:22.750Z,58.77
2022-10-05T09:52:28.948Z,56.46
2022-10-05T09:55:42.834Z,57.36
2022-10-05T09:58:38.636Z,56.96
2022-10-05T10:01:34.237Z,56.95
2022-10-05T10:04:08.247Z,57.38
2022-10-05T10:07:17.902Z,56.99
2022-10-05T10:09:55.660Z,57.61
2022-10-05T10:12:42.488Z,57.57
2022-10-05T10:15:31.944Z,57.49
2022-10-05T10:18:28.976Z,57.29
2022-10-05T10:21:20.592Z,56.88
2022-10-05T10:24:07.369Z,58.32
2022-10-05T10:26:53.875Z,58.12
2022-10-05T10:29:40.772Z,58.08
2022-10-05T10:32:21.873Z,58.13
2022-10-05T10:35:21.915Z,58.74
2022-10-05T10:37:52.719Z,58.71
2022-10-05T10:40:45.757Z,58.78
2022-10-05T10:43:43.020Z,58.04
2022-10-05T10:46:17.041Z,58.30
2022-10-05T10:49:14.249Z,58.58
2022-10-05T10:51:57.517Z,58.08
2022-10-05T10:55:02.642Z,58.24
2022-10-05T10:57:45.157Z,57.13
2022-10-05T11:00:44.558Z,58.34
2022-10-05T11:03:38.848Z,57.94
2022-10-05T11:06:22.071Z,57.87
2022-10-05T11:08:57.997Z,58.31
2022-10-05T11:11:39.037Z,58.43
2022-10-05T11:14:39.237Z,58.65
2022-10-05T11:17:31.905Z,58.25
2022-10-05T11:20:35.370Z,58.01
2022-10-05T11:23:43.882Z,58.63
2022-10-05T11:26:43.557Z,58.51
2022-10-05T11:29:30.427Z,58.50
2022-10-05T11:32:16.818Z,57.77
2022-10-05T11:35:24.766Z,58.80
2022-10-05T11:38:23.715Z,58.60
2022-10-05T11:41:23.838Z,58.90
2022-10-05T11:44:29.454Z,58.69
2022-10-05T11:47:29.505Z,59.19
2022-10-05T11:50:12.221Z,59.55
2022-10-05T11:52:45.655Z,59.46
2022-10-05T11:55:17.087Z,59.25
2022-10-05T11:58:01.682Z,58.91
2022-10-05T12:00:55.294Z,59.31
2022-10-05T12:03:38.813Z,59.40
2022-10-05T12:06:50.642Z,58.64
2022-10-05T12:10:09.764Z,58.98
2022-10-05T12:12:52.077Z,58.58
2022-10-05T12:15:40.819Z,59.40
2022-10-05T12:18:24.450Z,58.78
2022-10-05T12:21:01.079Z,58.91
2022-10-05T12:23:38.039Z,59.05
2022-10-05T12:26:29.261Z,58.99
2022-10-05T12:29:10.559Z,58.63
2022-10-05T12:32:04.293Z,58.79
2022-10-05T12:34:59.020Z,58.97
2022-10-05T12:37:48.475Z,57.78
2022-10-05T12:40:47.948Z,58.12
2022-10-05T12:43:36.219Z,58.44
2022-10-05T12:46:26.519Z,58.25
2022-10-05T12:49:16.331Z,58.58
2022-10-05T12:51:53.266Z,57.90
2022-10-05T12:54:29.263Z,58.16
2022-10-05T12:57:07.332Z,57.59
2022-10-05T12:59:43.002Z,57.89
2022-10-05T13:02:42.700Z,57.47
2022-10-05T13:05:10.413Z,58.00
2022-10-05T13:07:46.957Z,57.57
2022-10-05T13:10:24.770Z,57.96
2022-10-05T13:13:14.825Z,57.69
2022-10-05T13:15:54.492Z,57.23
2022-10-05T13:18:35.303Z,57.46
2022-10-05T13:21:28.645Z,57.70
2022-10-05T13:24:22.613Z,58.32
2022-10-05T13:26:58.793Z,57.96
2022-10-05T13:29:39.199Z,58.37
2022-10-05T13:32:25.847Z,58.05
2022-10-05T13:35:12.941Z,58.38
2022-10-05T13:37:53.767Z,58.17
2022-10-05T13:40:54.284Z,58.82
2022-10-05T13:43:46.648Z,59.12
2022-10-05T13:46:46.598Z,58.89
2022-10-05T13:49:23.789Z,59.10
2022-10-05T13:52:11.696Z,59.18
2022-10-05T13:54:49.597Z,59.35
2022-10-05T13:57:32.370Z,59.61
2022-10-05T14:00:22.736Z,59.64
2022-10-05T14:03:04.431Z,59.77
2022-10-05T14:05:32.447Z,59.98
2022-10-05T14:08:09.094Z,60.02
2022-10-05T14:10:53.877Z,60.36
2022-10-05T14:13:28.876Z,60.26
2022-10-05T14:16:06.522Z,60.40
2022-10-05T14:19:04.029Z,60.34
2022-10-05T14:21:43.999Z,60.54
2022-10-05T14:27:22.323Z,60.71
2022-10-05T14:30:02.106Z,60.84
2022-10-05T14:32:33.390Z,61.10
2022-10-05T14:35:10.174Z,61.06
2022-10-05T14:38:00.577Z,61.16
2022-10-05T14:40:28.665Z,61.37
2022-10-05T14:43:14.064Z,61.45
2022-10-05T14:46:03.436Z,61.44
2022-10-05T14:48:46.563Z,61.64
2022-10-05T14:51:28.367Z,61.83
2022-10-05T14:54:22.447Z,61.95
2022-10-05T14:57:00.094Z,62.12
2022-10-05T15:00:00.435Z,62.14
2022-10-05T15:02:53.937Z,62.21
2022-10-05T15:05:31.332Z,62.52
2022-10-05T15:08:41.996Z,62.47
2022-10-05T15:11:25.324Z,62.72
2022-10-05T15:13:58.739Z,62.79
2022-10-05T15:16:34.367Z,62.82
2022-10-05T15:19:45.141Z,62.94
2022-10-05T15:22:25.807Z,63.03
2022-10-05T15:25:21.603Z,63.15
2022-10-05T15:28:16.843Z,63.24
2022-10-05T15:31:06.942Z,63.46
2022-10-05T15:33:46.924Z,63.56
2022-10-05T15:36:43.035Z,63.74
2022-10-05T15:39:45.477Z,63.76
2022-10-05T15:42:41.248Z,63.98
2022-10-05T15:45:12.160Z,64.05
2022-10-05T15:48:05.260Z,64.22
2022-10-05T15:51:00.649Z,64.27
2022-10-05T15:53:45.877Z,64.39
2022-10-05T15:56:41.292Z,64.52
2022-10-05T15:59:33.155Z,64.65
2022-10-05T16:02:10.274Z,64.81
2022-10-05T16:05:20.561Z,64.82
2022-10-05T16:08:14.866Z,64.83
2022-10-05T16:10:48.472Z,65.18
2022-10-05T16:13:34.134Z,65.30
2022-10-05T16:16:32.950Z,65.32
2022-10-05T16:19:21.109Z,65.50
2022-10-05T16:22:03.936Z,65.74
2022-10-05T16:25:08.122Z,65.72
2022-10-05T16:28:05.737Z,65.79
2022-10-05T16:30:56.527Z,65.91
2022-10-05T16:34:09.476Z,66.03
2022-10-05T16:37:02.603Z,66.10
2022-10-05T16:39:55.686Z,66.07
2022-10-05T16:42:50.095Z,66.16
2022-10-05T16:45:45.937Z,66.30
2022-10-05T16:48:36.244Z,66.23
2022-10-05T16:51:46.204Z,66.32
2022-10-05T16:54:25.594Z,66.49
2022-10-05T16:57:02.650Z,66.47
2022-10-05T16:59:55.666Z,66.56
2022-10-05T17:02:51.282Z,66.55
2022-10-05T17:05:42.309Z,66.77
2022-10-05T17:08:36.866Z,66.75
2022-10-05T17:11:35.417Z,66.84
2022-10-05T17:14:06.690Z,66.82
2022-10-05T17:17:06.859Z,66.92
2022-10-05T17:19:49.155Z,67.09
2022-10-05T17:22:27.026Z,67.07
2022-10-05T17:25:24.473Z,67.46
2022-10-05T17:28:30.269Z,67.47
2022-10-05T17:31:17.259Z,67.51
2022-10-05T17:34:00.465Z,67.55
2022-10-05T17:37:15.337Z,67.57
2022-10-05T17:39:47.914Z,67.56
2022-10-05T17:42:36.960Z,67.59
2022-10-05T17:45:12.578Z,67.58
2022-10-05T17:48:03.455Z,67.62
2022-10-05T17:51:00.733Z,67.83
2022-10-05T17:54:08.489Z,67.70
2022-10-05T17:56:48.765Z,67.79
2022-10-05T17:59:46.862Z,67.96
2022-10-05T18:02:38.885Z,67.87
2022-10-05T18:05:22.255Z,67.93
2022-10-05T18:08:13.628Z,68.03
2022-10-05T18:11:06.624Z,68.11
2022-10-05T18:13:41.957Z,68.22
2022-10-05T18:16:11.158Z,68.16
2022-10-05T18:18:39.315Z,68.28
2022-10-05T18:21:21.535Z,68.32
2022-10-05T18:23:52.632Z,68.33
2022-10-05T18:27:18.142Z,68.35
2022-10-05T18:30:09.830Z,68.40
2022-10-05T18:33:13.597Z,68.39
2022-10-05T18:35:57.613Z,68.41
2022-10-05T18:38:51.514Z,68.42
2022-10-05T18:41:36.321Z,68.47
2022-10-05T18:44:20.542Z,68.50
2022-10-05T18:47:14.678Z,68.50
2022-10-05T18:50:10.005Z,68.53
2022-10-05T18:53:29.518Z,68.66
2022-10-05T18:56:14.833Z,68.75
2022-10-05T18:59:24.186Z,68.89
2022-10-05T19:02:18.906Z,68.82
2022-10-05T19:04:54.754Z,68.89
2022-10-05T19:07:53.436Z,69.02
2022-10-05T19:10:33.135Z,69.09
2022-10-05T19:13:18.554Z,69.09
2022-10-05T19:15:57.913Z,69.04
2022-10-05T19:18:53.840Z,69.00
2022-10-05T19:21:41.007Z,69.01
2022-10-05T19:24:26.888Z,69.11
2022-10-05T19:27:04.695Z,68.95
2022-10-05T19:30:03.796Z,69.09
2022-10-05T19:32:47.599Z,69.15
2022-10-05T19:35:33.629Z,69.19
2022-10-05T19:38:41.730Z,69.10
2022-10-05T19:41:31.512Z,69.20
2022-10-05T19:44:31.632Z,69.12
2022-10-05T19:47:03.626Z,69.11
2022-10-05T19:49:42.522Z,69.20
2022-10-05T19:52:22.403Z,69.25
2022-10-05T19:55:13.176Z,69.38
2022-10-05T19:57:49.235Z,69.35
2022-10-05T20:00:24.840Z,69.28
2022-10-05T20:03:15.908Z,69.29
2022-10-05T20:05:44.833Z,69.33
2022-10-05T20:08:18.678Z,69.36
2022-10-05T20:11:10.479Z,69.37
2022-10-05T20:13:42.118Z,69.47
2022-10-05T20:16:31.997Z,69.46
2022-10-05T20:19:20.066Z,69.34
2022-10-05T20:21:57.100Z,69.29
2022-10-05T20:24:28.399Z,69.36
2022-10-05T20:27:02.637Z,69.38
2022-10-05T20:29:36.891Z,69.33
2022-10-05T20:32:12.646Z,69.30
2022-10-05T20:34:43.512Z,69.28
2022-10-05T20:37:14.743Z,69.31
2022-10-05T20:39:43.582Z,69.27
2022-10-05T20:42:12.523Z,69.24
2022-10-05T20:44:41.138Z,69.26
2022-10-05T20:47:11.100Z,69.26
2022-10-05T20:49:41.314Z,69.25
2022-10-05T20:52:11.459Z,69.31
2022-10-05T20:54:39.450Z,69.37
2022-10-05T20:57:08.613Z,69.52
2022-10-05T20:59:37.392Z,69.42
2022-10-05T21:02:05.957Z,69.44
2022-10-05T21:04:40.982Z,69.49
2022-10-05T21:07:09.705Z,69.58
2022-10-05T21:09:39.303Z,69.64
2022-10-05T21:12:06.992Z,69.63
2022-10-05T21:14:36.368Z,69.68
2022-10-05T21:17:05.313Z,69.77
2022-10-05T21:19:40.496Z,69.93
2022-10-05T21:22:10.087Z,69.92
2022-10-05T21:24:40.960Z,69.94
2022-10-05T21:27:10.917Z,70.02
2022-10-05T21:29:41.678Z,70.02
2022-10-05T21:32:12.096Z,70.08
2022-10-05T21:34:42.084Z,70.11
2022-10-05T21:37:10.955Z,70.13
2022-10-05T21:39:39.767Z,70.25
2022-10-05T21:42:07.738Z,70.23
2022-10-05T21:44:35.691Z,70.22
2022-10-05T21:47:05.215Z,70.23
2022-10-05T21:49:34.997Z,70.24
2022-10-05T21:52:05.673Z,70.28
2022-10-05T21:54:35.915Z,70.36
2022-10-05T21:57:05.883Z,70.52
2022-10-05T21:59:36.188Z,70.37
2022-10-05T22:02:08.271Z,70.27
2022-10-05T22:04:37.105Z,70.21
2022-10-05T22:07:18.505Z,70.31
2022-10-05T22:09:51.507Z,70.34
2022-10-05T22:12:20.342Z,70.36
2022-10-05T22:14:49.978Z,70.37
2022-10-05T22:17:24.853Z,70.37
2022-10-05T22:19:56.822Z,70.35
2022-10-05T22:22:26.752Z,70.31
2022-10-05T22:24:56.055Z,70.35
2022-10-05T22:27:29.199Z,70.32
2022-10-05T22:29:59.367Z,70.27
2022-10-05T22:32:27.027Z,70.23
2022-10-05T22:34:54.925Z,70.17
2022-10-05T22:37:24.063Z,70.15
2022-10-05T22:39:51.846Z,70.12
2022-10-05T22:42:19.781Z,70.16
2022-10-05T22:44:47.472Z,70.14
2022-10-05T22:47:15.135Z,70.10
2022-10-05T22:49:43.865Z,70.08
2022-10-05T22:52:11.787Z,70.06
2022-10-05T22:54:39.658Z,70.02
2022-10-05T22:57:07.582Z,70.05
2022-10-05T22:59:37.196Z,70.05
2022-10-05T23:02:06.199Z,70.03
2022-10-05T23:04:33.998Z,70.00
2022-10-05T23:07:01.920Z,69.96
2022-10-05T23:09:30.755Z,69.95
2022-10-05T23:11:59.653Z,69.94
2022-10-05T23:14:30.308Z,69.93
2022-10-05T23:16:58.276Z,69.93
2022-10-05T23:19:27.398Z,69.95
2022-10-05T23:21:56.356Z,69.96
2022-10-05T23:24:24.309Z,69.95
2022-10-05T23:26:52.005Z,69.95
2022-10-05T23:29:19.755Z,69.91
2022-10-05T23:31:49.850Z,69.90
2022-10-05T23:34:18.609Z,69.90
2022-10-05T23:36:46.565Z,69.91
2022-10-05T23:39:15.331Z,69.94
2022-10-05T23:41:44.396Z,69.92
2022-10-05T23:44:13.451Z,69.90
2022-10-05T23:46:41.355Z,69.93
2022-10-05T23:49:09.280Z,69.96
2022-10-05T23:51:37.032Z,69.92
2022-10-05T23:54:04.777Z,69.85
2022-10-05T23:56:34.645Z,69.84
2022-10-05T23:59:04.063Z,69.85
